Time;durP1;ratioP1;P1;durP2;ratioP2;P2;SDS_P1;SDS_P2;PMS_P1;PMS_P2;Temp;Humidity;BMP_temperature;BMP_pressure;BME280_temperature;BME280_humidity;BME280_pressure;Samples;Min_cycle;Max_cycle;Signal;HPM_P1;HPM_P2
2022/09/10 03:31:46;;;;;;;2.92;0.80;;;18.80;86.30;;;;;;5112811;28;20035;-67
2022/09/10 03:34:31;;;;;;;2.00;1.02;;;18.80;86.30;;;;;;5090678;28;20511;-67
2022/09/10 03:37:24;;;;;;;1.10;0.80;;;18.80;86.30;;;;;;5058788;28;20111;-67
2022/09/10 04:00:56;;;;;;;1.75;1.08;;;18.80;86.50;;;;;;4977083;28;20082;-66
2022/09/10 04:03:22;;;;;;;3.70;0.95;;;18.80;86.50;;;;;;4979383;28;20066;-67
2022/09/10 04:05:47;;;;;;;1.58;0.85;;;18.80;86.50;;;;;;4962269;28;20432;-67
2022/09/10 04:08:16;;;;;;;2.13;1.10;;;18.80;86.60;;;;;;4978596;28;20039;-67
2022/09/10 04:10:46;;;;;;;3.05;1.00;;;18.80;86.60;;;;;;4959890;28;20111;-67
2022/09/10 04:13:12;;;;;;;0.82;0.80;;;18.80;86.60;;;;;;5004888;28;20132;-67
2022/09/10 04:15:39;;;;;;;1.35;0.73;;;18.80;86.70;;;;;;5020424;28;20075;-67
2022/09/10 04:18:08;;;;;;;1.75;0.80;;;18.80;86.60;;;;;;5028479;28;20033;-67
2022/09/10 04:20:39;;;;;;;3.05;0.88;;;18.80;86.60;;;;;;5007391;28;20482;-67
2022/09/10 04:29:22;;;;;;;1.10;0.73;;;18.80;86.80;;;;;;5034981;28;20117;-67
2022/09/10 04:31:49;;;;;;;1.08;0.90;;;18.80;86.80;;;;;;5042954;28;20505;-66
2022/09/10 04:34:15;;;;;;;0.95;0.85;;;18.80;86.80;;;;;;5027422;28;20033;-67
2022/09/10 04:36:44;;;;;;;5.30;0.95;;;18.80;86.80;;;;;;5061066;28;20025;-66
2022/09/10 04:39:10;;;;;;;2.03;1.00;;;18.80;86.80;;;;;;5052648;28;20044;-66
2022/09/10 04:41:36;;;;;;;0.95;0.80;;;18.80;86.90;;;;;;5032407;28;20017;-67
2022/09/10 04:50:54;;;;;;;3.22;0.98;;;18.80;86.90;;;;;;4986046;28;20041;-66
2022/09/10 04:53:23;;;;;;;1.85;1.15;;;18.80;87.00;;;;;;4998486;28;20115;-66
2022/09/10 04:55:53;;;;;;;4.18;1.15;;;18.80;87.00;;;;;;4988989;28;20046;-66
2022/09/10 04:58:20;;;;;;;;;;;18.80;87.00;;;;;;4978208;28;20054;-67
2022/09/10 05:00:46;;;;;;;2.47;1.13;;;18.80;87.10;;;;;;4977970;28;19958;-67
2022/09/10 05:03:15;;;;;;;0.82;0.80;;;18.80;87.00;;;;;;4978867;28;20023;-66
2022/09/10 05:05:45;;;;;;;3.25;1.00;;;18.80;87.10;;;;;;4980070;28;20538;-66
2022/09/10 05:08:19;;;;;;;2.15;1.08;;;18.80;87.20;;;;;;4997363;28;20026;-66
2022/09/10 05:10:48;;;;;;;0.95;0.88;;;18.80;87.20;;;;;;5001008;28;20029;-67
2022/09/10 05:16:09;;;;;;;3.08;1.10;;;18.80;87.10;;;;;;5012327;28;20064;-66
2022/09/10 05:18:36;;;;;;;2.95;1.10;;;18.80;87.20;;;;;;5002717;28;20519;-67
2022/09/10 05:21:09;;;;;;;1.83;1.00;;;18.80;87.20;;;;;;5013220;28;20033;-67
2022/09/10 05:23:50;;;;;;;3.33;1.17;;;18.80;87.20;;;;;;5057662;28;20131;-67
2022/09/10 05:26:37;;;;;;;2.75;1.13;;;18.80;87.30;;;;;;5054876;28;20029;-67
2022/09/10 05:29:20;;;;;;;4.63;0.82;;;18.80;87.30;;;;;;5072740;28;20032;-66
2022/09/10 05:31:46;;;;;;;3.92;1.20;;;18.80;87.30;;;;;;5072252;28;20131;-66
2022/09/10 05:34:12;;;;;;;2.20;0.80;;;18.80;87.30;;;;;;5088578;28;20108;-66
2022/09/10 05:36:40;;;;;;;2.95;0.95;;;18.80;87.40;;;;;;5083563;28;20058;-67
2022/09/10 05:39:09;;;;;;;2.60;1.02;;;18.80;88.10;;;;;;5109594;28;20085;-66
2022/09/10 05:41:40;;;;;;;1.15;0.82;;;18.80;87.40;;;;;;5078389;28;20493;-67
2022/09/10 05:44:05;;;;;;;1.48;0.85;;;18.80;87.40;;;;;;5067284;28;20106;-67
2022/09/10 05:46:35;;;;;;;3.17;0.85;;;18.80;87.40;;;;;;5094951;28;20477;-68
2022/09/10 05:49:00;;;;;;;1.42;0.90;;;18.80;87.50;;;;;;5058400;28;20035;-68
2022/09/10 05:51:31;;;;;;;2.35;0.80;;;18.70;87.50;;;;;;5074014;28;20027;-66
2022/09/10 05:54:13;;;;;;;0.95;0.77;;;18.80;87.50;;;;;;5086081;28;20384;-66
2022/09/10 05:56:39;;;;;;;4.32;1.00;;;18.80;87.50;;;;;;5066844;28;20032;-67
2022/09/10 05:59:08;;;;;;;1.88;1.00;;;18.70;88.20;;;;;;5072329;28;20042;-67
2022/09/10 06:01:50;;;;;;;3.05;0.88;;;18.80;87.50;;;;;;5086824;28;20027;-67
2022/09/10 06:04:21;;;;;;;2.42;1.10;;;18.80;87.50;;;;;;5086558;28;20034;-67
2022/09/10 06:06:47;;;;;;;1.13;0.90;;;18.80;87.60;;;;;;5076355;28;20488;-66
2022/09/10 06:13:00;;;;;;;3.60;1.00;;;18.80;87.70;;;;;;4992485;28;20093;-66
2022/09/10 06:15:26;;;;;;;3.83;1.00;;;18.70;87.60;;;;;;4976779;28;20096;-67
2022/09/10 06:28:19;;;;;;;1.23;0.90;;;18.70;87.70;;;;;;4991869;28;20095;-66
2022/09/10 06:37:02;;;;;;;0.98;0.80;;;18.80;87.80;;;;;;4953668;28;20077;-67
2022/09/10 06:49:42;;;;;;;2.55;0.80;;;18.70;87.60;;;;;;4997374;28;20025;-67
2022/09/10 06:52:26;;;;;;;1.63;1.00;;;18.70;87.60;;;;;;4998924;28;20034;-67
2022/09/10 07:05:12;;;;;;;4.53;1.33;;;18.80;87.50;;;;;;5020004;28;20104;-67
2022/09/10 07:12:04;;;;;;;1.40;0.73;;;18.80;87.60;;;;;;4918162;29;20550;-67
2022/09/10 08:06:25;;;;;;;1.23;0.82;;;18.90;88.00;;;;;;5066735;28;20066;-68
2022/09/10 08:09:13;;;;;;;0.70;0.70;;;18.90;88.00;;;;;;5050502;28;20524;-67
2022/09/10 08:11:45;;;;;;;1.60;0.73;;;18.80;88.00;;;;;;5054519;28;20041;-67
2022/09/10 08:21:20;;;;;;;2.05;1.02;;;18.90;88.00;;;;;;5032048;28;20025;-67
2022/09/10 08:24:08;;;;;;;;;;;;;;;;;;;;;
2022/09/10 09:11:33;;;;;;;0.85;0.80;;;19.00;88.20;;;;;;5078576;28;20511;-68
2022/09/10 09:14:07;;;;;;;2.80;0.98;;;19.00;88.20;;;;;;5081752;28;20020;-67
2022/09/10 09:16:40;;;;;;;2.05;0.90;;;19.00;88.20;;;;;;5057057;28;20035;-67
2022/09/10 09:19:22;;;;;;;1.70;0.60;;;19.00;88.10;;;;;;5079744;28;20481;-67
2022/09/10 09:21:53;;;;;;;2.40;0.85;;;19.00;88.10;;;;;;5068637;28;20041;-67
2022/09/10 09:24:38;;;;;;;1.40;0.82;;;19.00;88.10;;;;;;5079632;28;20017;-66
2022/09/10 09:27:10;;;;;;;2.28;0.60;;;19.00;88.10;;;;;;5080841;28;20024;-66
2022/09/10 09:29:54;;;;;;;4.22;0.80;;;19.00;88.20;;;;;;5076923;28;20028;-67
2022/09/10 09:32:21;;;;;;;0.68;0.68;;;19.00;88.10;;;;;;5071852;28;20477;-66
2022/09/10 09:34:55;;;;;;;1.70;0.60;;;19.00;88.00;;;;;;5078119;28;20071;-67
2022/09/10 09:37:28;;;;;;;0.95;0.77;;;19.00;88.00;;;;;;5070857;28;20135;-67
2022/09/10 09:40:15;;;;;;;1.13;0.65;;;19.00;88.00;;;;;;5078546;28;20064;-67
2022/09/10 09:42:51;;;;;;;0.45;0.45;;;19.00;87.80;;;;;;5082664;28;20012;-67
2022/09/10 09:45:27;;;;;;;2.17;0.60;;;19.00;87.80;;;;;;5078977;28;20019;-67
2022/09/10 09:47:53;;;;;;;1.05;0.70;;;19.10;87.80;;;;;;5076854;28;20507;-67
2022/09/10 09:50:19;;;;;;;2.95;0.75;;;19.10;87.90;;;;;;5072328;28;20079;-68
2022/09/10 09:52:46;;;;;;;1.27;0.90;;;19.10;87.90;;;;;;5078321;28;20369;-67
2022/09/10 09:55:30;;;;;;;0.68;0.60;;;19.10;87.90;;;;;;5081431;28;20017;-67
2022/09/10 09:58:20;;;;;;;1.48;0.75;;;19.10;88.00;;;;;;5074182;28;20413;-68
2022/09/10 10:00:47;;;;;;;;;;;19.10;87.90;;;;;;5065298;28;20021;-67
2022/09/10 10:03:23;;;;;;;1.02;0.60;;;19.10;88.00;;;;;;5071538;28;19955;-67
2022/09/10 10:05:48;;;;;;;1.05;0.75;;;19.10;88.10;;;;;;5081890;28;20059;-67
2022/09/10 10:08:32;;;;;;;1.65;0.77;;;19.10;88.10;;;;;;5066699;28;20115;-67
2022/09/10 10:10:58;;;;;;;2.05;0.70;;;19.10;88.20;;;;;;5081516;28;20089;-67
2022/09/10 10:13:24;;;;;;;0.80;0.70;;;19.10;88.20;;;;;;5078644;28;20099;-67
2022/09/10 10:15:50;;;;;;;0.60;0.60;;;19.10;88.30;;;;;;5078469;28;20538;-67
2022/09/10 10:18:21;;;;;;;0.77;0.77;;;19.10;88.30;;;;;;5065894;28;20043;-65
2022/09/10 10:21:13;;;;;;;0.50;0.50;;;19.10;88.30;;;;;;5081337;28;20066;-65
2022/09/10 10:23:39;;;;;;;0.47;0.47;;;19.10;88.10;;;;;;5072601;28;20025;-66
2022/09/10 10:26:19;;;;;;;0.73;0.70;;;19.00;88.10;;;;;;5078274;28;20027;-66
2022/09/10 10:28:58;;;;;;;1.92;0.70;;;19.10;88.30;;;;;;5073561;28;20476;-66
2022/09/10 10:31:42;;;;;;;2.50;0.77;;;19.00;88.30;;;;;;5077195;28;20066;-66
2022/09/10 10:34:36;;;;;;;1.00;0.57;;;19.00;88.50;;;;;;5080685;28;20028;-66
2022/09/10 10:37:24;;;;;;;2.33;0.80;;;19.10;88.90;;;;;;5080216;28;20026;-66
2022/09/10 10:40:01;;;;;;;0.57;0.57;;;19.10;88.90;;;;;;5073371;28;20112;-66
2022/09/10 10:42:50;;;;;;;1.98;0.90;;;19.10;89.30;;;;;;5071550;28;20102;-66
2022/09/10 10:45:27;;;;;;;1.60;0.80;;;19.10;89.20;;;;;;5076905;28;20063;-66
2022/09/10 10:48:10;;;;;;;1.30;0.60;;;19.10;90.00;;;;;;5063079;28;20024;-66
2022/09/10 10:50:36;;;;;;;2.67;0.80;;;19.10;89.30;;;;;;5063416;28;20064;-66
2022/09/10 10:53:21;;;;;;;0.70;0.70;;;19.10;89.30;;;;;;5078454;28;20477;-66
2022/09/10 10:56:09;;;;;;;0.60;0.60;;;19.10;89.30;;;;;;5085786;28;20094;-66
2022/09/10 10:58:45;;;;;;;1.52;0.95;;;19.10;89.40;;;;;;5077042;28;20040;-66
2022/09/10 11:01:19;;;;;;;1.67;0.90;;;19.10;89.30;;;;;;5080564;28;20479;-66
2022/09/10 11:04:12;;;;;;;2.35;0.60;;;19.10;89.30;;;;;;5081752;28;20489;-66
2022/09/10 11:06:43;;;;;;;1.23;0.80;;;19.10;90.10;;;;;;5073943;28;20020;-66
2022/09/10 11:09:26;;;;;;;4.68;1.00;;;19.10;89.90;;;;;;5080900;28;20701;-66
2022/09/10 11:12:00;;;;;;;1.25;0.73;;;19.10;90.00;;;;;;5075906;28;20079;-66
2022/09/10 11:14:49;;;;;;;4.75;0.70;;;19.10;90.00;;;;;;5084621;28;20115;-66
2022/09/10 11:17:21;;;;;;;0.90;0.80;;;19.10;90.00;;;;;;5078741;28;20029;-66
2022/09/10 11:19:57;;;;;;;1.77;1.08;;;19.00;89.90;;;;;;5079490;28;20279;-66
2022/09/10 11:22:30;;;;;;;3.50;0.93;;;19.00;89.90;;;;;;5083503;28;20465;-66
2022/09/10 11:24:56;;;;;;;0.75;0.70;;;19.10;90.00;;;;;;5084628;28;20504;-66
2022/09/10 11:27:28;;;;;;;2.22;1.00;;;19.10;90.00;;;;;;5081722;28;20197;-66
2022/09/10 11:29:54;;;;;;;1.33;0.98;;;19.10;90.00;;;;;;5074788;28;20168;-66
2022/09/10 11:32:38;;;;;;;1.50;0.80;;;19.10;90.00;;;;;;5079407;28;20532;-66
2022/09/10 11:35:13;;;;;;;3.05;1.30;;;19.10;90.10;;;;;;5082932;28;20389;-66
2022/09/10 11:38:23;;;;;;;5.15;1.08;;;19.10;90.20;;;;;;5071459;28;20023;-66
2022/09/10 11:41:25;;;;;;;2.20;0.95;;;19.10;90.20;;;;;;5015445;28;20046;-66
2022/09/10 11:44:09;;;;;;;1.63;0.73;;;19.10;90.30;;;;;;5073773;28;20017;-67
2022/09/10 11:54:23;;;;;;;8.68;0.98;;;19.00;90.30;;;;;;5015270;28;20025;-66
2022/09/10 12:00:46;;;;;;;0.60;0.60;;;19.00;90.40;;;;;;4956258;28;20060;-65
2022/09/10 12:03:56;;;;;;;1.92;1.00;;;19.10;90.50;;;;;;4965489;28;20046;-66
2022/09/10 12:06:51;;;;;;;0.85;0.70;;;19.10;90.60;;;;;;4958324;28;20039;-65
2022/09/10 12:09:39;;;;;;;1.80;0.77;;;19.10;90.80;;;;;;4959281;28;20377;-65
2022/09/10 12:12:12;;;;;;;0.93;0.73;;;19.10;91.00;;;;;;4950426;28;20043;-65
2022/09/10 12:14:39;;;;;;;1.05;0.77;;;19.00;91.10;;;;;;4963054;28;20030;-66
2022/09/10 12:17:29;;;;;;;1.65;0.77;;;19.10;91.10;;;;;;4968844;28;20353;-66
2022/09/10 12:19:57;;;;;;;0.70;0.70;;;19.10;91.10;;;;;;4962135;28;20042;-66
2022/09/10 12:22:34;;;;;;;0.68;0.68;;;19.00;91.20;;;;;;4969459;28;20538;-66
2022/09/10 12:25:22;;;;;;;4.97;1.08;;;19.00;91.20;;;;;;4958451;28;20035;-66
2022/09/10 12:27:59;;;;;;;1.05;0.75;;;19.10;91.30;;;;;;5002549;28;20041;-66
2022/09/10 12:30:32;;;;;;;4.85;1.13;;;19.00;91.70;;;;;;5033809;28;20075;-66
2022/09/10 12:33:00;;;;;;;0.60;0.60;;;19.00;91.40;;;;;;5054782;28;20021;-66
2022/09/10 12:35:31;;;;;;;2.75;0.98;;;19.00;91.40;;;;;;5055968;28;20036;-66
2022/09/10 12:38:34;;;;;;;2.90;1.10;;;19.00;91.40;;;;;;5064463;28;20433;-66
2022/09/10 12:41:01;;;;;;;2.50;1.05;;;19.00;91.50;;;;;;5052235;28;20037;-65
2022/09/10 12:43:39;;;;;;;4.55;1.05;;;19.00;91.60;;;;;;5058171;28;20385;-65
2022/09/10 12:46:07;;;;;;;1.95;0.90;;;19.00;91.70;;;;;;5048634;28;20048;-65
2022/09/10 12:48:36;;;;;;;1.17;0.70;;;19.00;91.70;;;;;;5039045;28;20461;-66
2022/09/10 12:51:34;;;;;;;1.70;0.80;;;19.10;91.70;;;;;;5059183;28;20037;-66
2022/09/10 12:54:33;;;;;;;1.15;0.60;;;19.00;91.70;;;;;;5044750;28;20064;-66
2022/09/10 12:57:14;;;;;;;1.23;0.80;;;19.00;91.80;;;;;;5042500;28;20020;-66
2022/09/10 13:00:11;;;;;;;0.60;0.60;;;19.00;91.80;;;;;;5068019;28;20025;-66
2022/09/10 13:02:52;;;;;;;3.33;0.65;;;19.10;91.90;;;;;;5062124;28;20021;-65
2022/09/10 13:05:38;;;;;;;3.50;1.80;;;19.10;92.00;;;;;;5053297;28;20074;-65
2022/09/10 13:08:30;;;;;;;2.65;0.75;;;19.10;92.00;;;;;;5056865;28;20494;-66
2022/09/10 13:10:57;;;;;;;0.75;0.70;;;19.10;92.00;;;;;;5051494;28;20081;-66
2022/09/10 13:13:41;;;;;;;0.80;0.70;;;19.10;92.00;;;;;;5082562;28;20027;-65
2022/09/10 13:16:39;;;;;;;2.80;0.50;;;19.10;92.10;;;;;;5074277;28;20548;-65
2022/09/10 13:19:18;;;;;;;1.65;0.90;;;19.10;92.10;;;;;;5013983;28;20199;-66
2022/09/10 13:21:43;;;;;;;1.20;0.75;;;19.00;92.00;;;;;;5018724;28;20026;-65
2022/09/10 13:24:35;;;;;;;2.15;0.80;;;19.00;92.00;;;;;;5019488;28;20131;-66
2022/09/10 13:27:19;;;;;;;1.65;0.70;;;19.00;91.90;;;;;;4998984;28;20036;-66
2022/09/10 13:30:10;;;;;;;1.20;0.75;;;19.00;92.00;;;;;;5016484;28;20690;-66
2022/09/10 13:32:56;;;;;;;0.60;0.60;;;19.00;92.00;;;;;;5017115;28;20062;-65
2022/09/10 13:35:57;;;;;;;1.00;0.90;;;19.00;92.10;;;;;;5011699;28;20057;-66
2022/09/10 13:38:59;;;;;;;0.98;0.85;;;19.00;92.10;;;;;;5011885;28;20463;-65
2022/09/10 13:41:46;;;;;;;1.67;0.60;;;19.10;92.10;;;;;;5011971;28;20069;-65
2022/09/10 13:44:24;;;;;;;0.68;0.60;;;19.00;92.40;;;;;;5018795;28;20648;-66
2022/09/10 13:46:54;;;;;;;1.77;0.90;;;19.00;92.10;;;;;;4998313;28;20114;-66
2022/09/10 13:49:45;;;;;;;3.08;1.48;;;19.10;92.10;;;;;;5012439;28;20045;-66
2022/09/10 13:52:14;;;;;;;1.00;0.57;;;19.10;92.10;;;;;;5012759;28;20041;-66
2022/09/10 13:54:53;;;;;;;0.73;0.57;;;19.10;92.20;;;;;;5025692;28;20083;-66
2022/09/10 13:57:25;;;;;;;1.88;0.80;;;19.00;92.20;;;;;;5059188;28;20560;-66
2022/09/10 14:00:07;;;;;;;1.20;0.73;;;19.10;92.20;;;;;;5078484;28;20037;-66
2022/09/10 14:02:53;;;;;;;3.45;0.90;;;19.10;92.10;;;;;;5078011;28;20047;-66
2022/09/10 14:05:22;;;;;;;0.60;0.60;;;19.10;92.00;;;;;;5073160;28;20535;-66
2022/09/10 14:07:49;;;;;;;2.08;0.80;;;19.10;92.10;;;;;;5073005;28;20032;-65
2022/09/10 14:10:18;;;;;;;0.60;0.60;;;19.10;92.10;;;;;;5082101;28;20032;-66
2022/09/10 14:12:45;;;;;;;2.20;0.60;;;19.10;92.00;;;;;;5079977;28;20032;-66
2022/09/10 14:15:16;;;;;;;1.67;0.68;;;19.00;92.00;;;;;;5080417;28;20024;-66
2022/09/10 14:17:49;;;;;;;0.57;0.57;;;19.10;92.00;;;;;;5079010;28;20036;-66
2022/09/10 14:20:30;;;;;;;1.17;0.60;;;19.00;91.80;;;;;;5075839;28;20469;-66
2022/09/10 14:23:02;;;;;;;3.22;1.00;;;19.10;91.80;;;;;;5092409;28;20016;-65
2022/09/10 14:25:34;;;;;;;1.55;0.80;;;19.00;91.80;;;;;;5092384;28;20085;-66
2022/09/10 14:28:15;;;;;;;1.90;0.80;;;19.00;91.70;;;;;;5092108;28;20079;-66
2022/09/10 14:31:20;;;;;;;0.75;0.60;;;19.00;91.80;;;;;;5092667;28;20517;-65
2022/09/10 14:33:48;;;;;;;1.73;0.80;;;19.00;91.80;;;;;;5073285;28;20023;-65
2022/09/10 14:36:16;;;;;;;1.80;0.70;;;19.00;91.80;;;;;;5066115;28;20055;-66
2022/09/10 14:38:44;;;;;;;2.28;0.70;;;19.00;91.90;;;;;;5092814;28;20036;-65
2022/09/10 14:41:31;;;;;;;1.70;0.70;;;19.00;91.80;;;;;;5092280;28;20032;-66
2022/09/10 14:44:21;;;;;;;1.65;0.68;;;19.00;91.90;;;;;;5083811;28;20016;-66
2022/09/10 14:46:53;;;;;;;0.88;0.70;;;19.00;91.80;;;;;;5079609;28;20388;-66
2022/09/10 14:49:24;;;;;;;2.30;0.75;;;19.00;91.80;;;;;;5079297;28;20025;-66
2022/09/10 14:51:50;;;;;;;1.02;0.70;;;19.00;91.80;;;;;;5078161;28;20093;-65
2022/09/10 14:54:15;;;;;;;0.60;0.60;;;19.00;91.80;;;;;;5077917;28;20029;-66
2022/09/10 14:56:46;;;;;;;0.50;0.50;;;19.00;92.10;;;;;;5075400;28;20027;-65
2022/09/10 14:59:37;;;;;;;0.95;0.55;;;19.00;91.70;;;;;;5074653;28;20031;-66
2022/09/10 15:02:15;;;;;;;2.50;0.60;;;19.00;91.60;;;;;;5068833;28;20545;-65
2022/09/10 15:04:41;;;;;;;1.75;0.80;;;19.00;91.60;;;;;;5075430;28;20029;-66
2022/09/10 15:07:10;;;;;;;0.55;0.50;;;19.00;91.50;;;;;;5077789;28;20234;-66
2022/09/10 15:09:36;;;;;;;2.47;0.73;;;18.90;91.40;;;;;;5081401;28;20392;-66
2022/09/10 15:12:04;;;;;;;2.40;0.40;;;19.00;91.40;;;;;;5069572;28;20025;-66
2022/09/10 15:14:32;;;;;;;1.50;0.55;;;18.90;91.30;;;;;;5076785;28;20020;-66
2022/09/10 15:16:58;;;;;;;0.40;0.40;;;19.00;91.30;;;;;;5070916;28;20549;-66
2022/09/10 15:19:23;;;;;;;1.58;0.70;;;18.90;91.20;;;;;;5081178;28;20100;-66
2022/09/10 15:21:49;;;;;;;0.60;0.60;;;18.90;91.20;;;;;;5076871;28;20072;-66
2022/09/10 15:24:20;;;;;;;1.45;0.63;;;18.90;91.20;;;;;;5081329;28;20108;-66
2022/09/10 15:26:47;;;;;;;2.47;0.95;;;18.90;91.20;;;;;;5072712;28;20478;-66
2022/09/10 15:29:13;;;;;;;1.45;0.60;;;18.90;91.10;;;;;;5076415;28;20120;-66
2022/09/10 15:31:39;;;;;;;1.85;0.63;;;18.90;91.10;;;;;;5079581;28;20095;-66
2022/09/10 15:34:07;;;;;;;0.95;0.73;;;18.90;91.00;;;;;;5073202;28;20048;-66
2022/09/10 15:36:34;;;;;;;1.05;0.98;;;18.90;91.00;;;;;;5070050;28;20427;-66
2022/09/10 15:39:00;;;;;;;1.02;0.80;;;18.90;91.00;;;;;;5081443;28;20032;-66
2022/09/10 15:41:25;;;;;;;1.73;0.70;;;18.90;91.00;;;;;;5079451;28;20020;-66
2022/09/10 15:43:51;;;;;;;1.10;0.73;;;18.90;91.00;;;;;;5082870;28;20028;-66
2022/09/10 15:46:18;;;;;;;1.35;0.70;;;18.90;91.00;;;;;;5080917;28;20103;-66
2022/09/10 15:48:46;;;;;;;1.00;0.82;;;18.90;90.90;;;;;;5058708;28;20029;-66
2022/09/10 15:51:20;;;;;;;1.38;0.60;;;18.90;90.90;;;;;;5066246;28;20482;-66
2022/09/10 15:53:46;;;;;;;2.17;0.60;;;18.90;90.80;;;;;;5091437;28;20027;-66
2022/09/10 15:56:13;;;;;;;2.97;0.80;;;18.90;90.80;;;;;;5074904;28;20529;-65
2022/09/10 15:59:10;;;;;;;7.00;1.00;;;18.90;90.70;;;;;;5075196;28;20039;-65
2022/09/10 16:05:00;;;;;;;1.75;0.65;;;18.90;90.60;;;;;;5075468;28;20507;-66
2022/09/10 16:07:26;;;;;;;2.78;0.90;;;18.90;90.60;;;;;;5066570;28;20428;-65
2022/09/10 16:09:52;;;;;;;2.63;0.70;;;18.90;90.60;;;;;;5074818;28;20025;-66
2022/09/10 16:12:18;;;;;;;1.30;0.95;;;18.80;90.50;;;;;;5077974;28;20067;-66
2022/09/10 16:14:45;;;;;;;1.63;0.90;;;18.80;90.40;;;;;;5067059;28;20027;-66
2022/09/10 16:17:11;;;;;;;2.55;0.70;;;18.80;90.40;;;;;;5072478;28;20028;-65
2022/09/10 16:19:37;;;;;;;0.82;0.70;;;18.80;90.30;;;;;;5075489;28;20036;-66
2022/09/10 16:22:03;;;;;;;0.70;0.70;;;18.80;90.20;;;;;;5074813;28;20576;-65
2022/09/10 16:24:30;;;;;;;1.25;0.65;;;18.80;90.20;;;;;;5080438;28;20029;-66
2022/09/10 16:26:55;;;;;;;1.02;1.02;;;18.80;90.20;;;;;;5063052;28;20089;-66
2022/09/10 16:29:21;;;;;;;3.00;0.85;;;18.80;90.20;;;;;;5078758;28;20473;-66
2022/09/10 16:31:47;;;;;;;1.00;0.80;;;18.80;90.20;;;;;;5084018;28;20047;-66
2022/09/10 16:34:17;;;;;;;0.60;0.60;;;18.80;90.10;;;;;;5072295;28;20032;-65
2022/09/10 16:36:44;;;;;;;2.40;0.80;;;18.80;90.10;;;;;;5071567;28;20424;-66
2022/09/10 16:39:12;;;;;;;1.17;0.70;;;18.80;90.10;;;;;;5075449;28;20040;-66
2022/09/10 16:41:39;;;;;;;3.90;0.93;;;18.80;90.10;;;;;;5086758;28;20025;-65
2022/09/10 16:44:05;;;;;;;0.70;0.70;;;18.80;90.10;;;;;;5074695;28;20111;-66
2022/09/10 16:46:31;;;;;;;1.45;0.82;;;18.80;90.20;;;;;;5091254;28;20028;-65
2022/09/10 16:48:58;;;;;;;5.03;0.85;;;18.80;90.20;;;;;;5081441;28;20197;-66
2022/09/10 16:51:25;;;;;;;0.63;0.63;;;18.80;90.20;;;;;;5073306;28;20492;-66
2022/09/10 16:53:56;;;;;;;0.70;0.70;;;18.80;90.20;;;;;;5083373;28;20028;-66
2022/09/10 16:56:23;;;;;;;3.92;0.90;;;18.80;90.20;;;;;;5077654;28;20147;-66
2022/09/10 16:58:48;;;;;;;1.13;1.00;;;18.80;90.20;;;;;;5080341;28;20100;-66
2022/09/10 17:01:15;;;;;;;1.00;0.60;;;18.80;90.20;;;;;;5069300;28;20461;-66
2022/09/10 17:03:50;;;;;;;4.47;1.05;;;18.80;90.20;;;;;;5064851;28;20115;-66
2022/09/10 17:06:19;;;;;;;2.35;0.95;;;18.80;90.10;;;;;;5065132;28;20487;-66
2022/09/10 17:08:45;;;;;;;1.88;0.77;;;18.70;90.10;;;;;;5078226;28;20059;-65
2022/09/10 17:11:13;;;;;;;5.05;1.10;;;18.80;90.00;;;;;;5072476;28;20552;-65
2022/09/10 17:13:39;;;;;;;1.65;0.95;;;18.70;90.00;;;;;;5079337;28;20099;-65
2022/09/10 17:16:11;;;;;;;1.48;0.90;;;18.70;89.90;;;;;;5079879;28;20032;-65
2022/09/10 17:18:36;;;;;;;1.08;1.00;;;18.70;90.00;;;;;;5082236;28;20031;-66
2022/09/10 17:21:02;;;;;;;1.77;0.88;;;18.70;89.70;;;;;;5067938;28;20500;-66
2022/09/10 17:23:28;;;;;;;9.48;3.92;;;18.70;89.70;;;;;;5082548;28;20416;-65
2022/09/10 17:25:53;;;;;;;4.65;1.35;;;18.70;89.60;;;;;;5081793;28;20024;-66
2022/09/10 17:28:19;;;;;;;2.95;0.90;;;18.70;89.50;;;;;;5078630;28;20036;-65
2022/09/10 17:30:44;;;;;;;1.67;0.90;;;18.70;89.40;;;;;;5068564;28;20035;-66
2022/09/10 17:33:10;;;;;;;1.67;0.70;;;18.70;89.40;;;;;;5076677;28;20601;-65
2022/09/10 17:35:35;;;;;;;0.93;0.70;;;18.70;89.30;;;;;;5082428;28;20028;-65
2022/09/10 19:11:16;;;;;;;2.70;0.90;;;18.60;90.00;;;;;;5055984;28;20461;-65
